Weather observations for the past three days for
Jacksonville Municipal Airport
Imperial (Metric)
Date Time (cdt) Wind (mph) Vis. (mi.) Weather Sky Cond. Temperature (ºF) Relative Humidity Wind Chill (°F) Heat Index (°F) Pressure Precipitation (in)
Air Dwpt 6 hour altimeter (in) sea level (mb) 1 hr 3 hr 6 hr
Max. Min.
01 11:55 W 6 10.00 Fair CLR 91.4 70.7 51% 98 30.04 0.0
01 11:35 SW 3 10.00 Fair CLR 90.5 70.3 52% 96 30.04 0.0
01 11:15 SW 5 10.00 Fair CLR 89.2 69.6 52% 94 30.04 0.0
01 10:55 W 6 10.00 Fair CLR 88.5 70 54% 94 30.05 0.0
01 10:35 W 7 10.00 Fair CLR 87.6 69.6 55% 92 30.04 0.0
01 10:15 W 5 10.00 Fair CLR 86.5 69.6 57% 91 30.04 0.0
01 09:55 SW 8 10.00 Fair CLR 84.9 69.3 60% 89 30.04 0.0
01 09:35 SW 7 10.00 Fair CLR 84.2 69.1 61% 88 30.04 0.0
01 09:15 SW 7 10.00 Fair CLR 82.4 68.9 64% 86 30.04 0.0
01 08:55 SW 7 10.00 Fair CLR 81.1 68.9 66% 84 30.04 0.0
01 08:35 SW 7 10.00 Fair CLR 79.7 68.9 70% 82 30.04 0.0
01 08:15 SW 7 10.00 Fair CLR 78.3 68.4 72% 80 30.04 0.0
01 07:55 SW 6 10.00 Fair CLR 77.5 68 73% 79 30.04 0.0
01 07:35 SW 6 10.00 Fair CLR 76.1 68.2 77% 77 30.03 0.0
01 07:15 SW 5 10.00 Fair CLR 74.7 68 80% 30.03 0.0
01 06:55 S 5 10.00 Fair CLR 73.6 67.6 77.7 73 82% 30.02 0.0
01 06:35 S 6 10.00 Fair CLR 73.2 67.6 83% 30.02 0.0
01 06:15 SW 5 10.00 Fair CLR 73.8 68 82% 30.01 0.0
01 05:55 S 7 10.00 Fair CLR 74.3 68 81% 30.01 0.0
01 05:35 S 6 10.00 Fair CLR 75.2 68 78% 76 30 0.0
01 05:15 S 7 10.00 Fair CLR 75.9 68.2 77% 77 30 0.0
01 04:55 S 7 10.00 Fair CLR 76.3 68.2 76% 78 29.99 0.0
01 04:35 S 7 10.00 Fair CLR 75.7 68.4 78% 77 29.99 0.0
01 04:15 S 6 10.00 Fair CLR 75.6 68.2 78% 77 29.99 0.0
01 03:55 S 6 10.00 Fair CLR 75.7 68.4 78% 77 29.99 0.0
01 03:35 S 6 10.00 Fair CLR 75.6 68.4 78% 77 29.99 0.0
01 03:15 S 6 10.00 Fair CLR 76.1 68.5 78% 77 29.99 0.0
01 02:55 S 7 10.00 Fair CLR 76.1 68.5 78% 77 29.99 0.0
01 02:35 S 7 10.00 Fair CLR 76.1 68.7 78% 77 29.99 0.0
01 02:15 S 7 10.00 Fair CLR 76.3 68.9 78% 78 29.99 0.0
01 01:55 S 6 10.00 Fair CLR 77 68.9 76% 79 29.99 0.0
01 01:35 S 6 10.00 Fair CLR 77.4 68.9 75% 79 29.99 0.0
01 01:15 S 6 10.00 Fair CLR 77.5 69.1 75% 79 29.99 0.0
01 00:55 S 6 10.00 Fair CLR 77.2 69.3 90.1 77.2 77% 79 29.99 0.0
01 00:35 S 6 10.00 Fair CLR 77.4 69.3 76% 79 29.98 0.0
01 00:15 S 5 10.00 Fair CLR 77.9 69.3 75% 80 29.98 0.0
31 23:55 S 5 10.00 Fair CLR 79 69.3 72% 82 29.98 0.0
31 23:35 S 7 10.00 Fair CLR 79.5 69.4 71% 82 29.98 0.0
31 22:55 S 3 10.00 Fair CLR 79.9 69.8 71% 83 29.98 0.0
31 22:35 S 6 10.00 Fair CLR 79.7 70 72% 83 29.98 0.0
31 22:15 S 5 10.00 Fair CLR 79.3 70 73% 82 29.98 0.0
31 21:55 S 5 10.00 Fair CLR 80.4 70 71% 84 29.98 0.0
31 21:35 S 3 10.00 Fair CLR 78.6 70.5 76% 81 29.98 0.0
31 21:15 S 3 10.00 Fair CLR 82.2 70 67% 86 29.98 0.0
31 20:55 S 5 10.00 Fair CLR 84 70 63% 88 29.97 0.0
31 20:35 S 7 10.00 Fair CLR 85.5 70 60% 90 29.96 0.0
31 20:15 S 8 10.00 Fair CLR 85.8 70.7 61% 91 29.95 0.0
31 19:55 S 8 10.00 Fair CLR 86.7 70.9 59% 92 29.94 0.0
31 19:35 S 8 10.00 Fair CLR 87.3 70.9 58% 93 29.94 0.0
31 19:15 S 7 10.00 Fair CLR 88.5 71.1 56% 95 29.94 0.0
31 18:35 S 7 10.00 Fair CLR 91.2 70.7 51% 98 29.94 0.0
31 18:15 S 8 G 16 10.00 Fair CLR 92.5 70 48% 98 29.94 0.0
31 17:55 S 10 G 17 10.00 Fair CLR 93.4 70 47% 99 29.94 0.0
31 17:35 S 10 10.00 Fair CLR 94.3 69.4 44% 100 29.94 0.0
31 17:15 S 8 10.00 Fair CLR 94.6 68.2 42% 99 29.94 0.0
31 16:55 S 8 10.00 Fair CLR 95 68.9 43% 100 29.94 0.0
31 16:35 SW 12 G 18 10.00 Fair CLR 95.2 67.8 41% 100 29.94 0.0
31 16:15 SW 12 10.00 Fair CLR 95.4 68.9 42% 101 29.95 0.0
31 15:55 SW 9 G 18 10.00 Fair CLR 95.4 68 41% 100 29.94 0.0
31 15:35 S 9 G 18 10.00 Fair CLR 95.2 68.5 42% 100 29.94 0.0
31 15:15 S 12 G 17 10.00 Fair CLR 95.2 68.9 42% 101 29.95 0.0
31 14:55 S 9 10.00 Fair CLR 95.2 68.9 42% 101 29.95 0.0
31 14:35 S 9 10.00 Fair CLR 94.6 68.7 43% 100 29.96 0.0
31 14:15 SW 6 10.00 Fair CLR 95 70.2 45% 102 29.96 0.0
31 13:55 S 9 10.00 Fair CLR 94.3 70.2 46% 101 29.97 0.0
31 13:35 SW 8 10.00 Fair CLR 93.4 68.7 45% 98 29.98 0.0
31 13:15 SW 10 10.00 Fair CLR 92.7 68.9 46% 98 29.98 0.0
31 12:55 S 9 G 16 10.00 Fair CLR 92.7 69.1 92.8 70.7 46% 98 29.99 0.0
31 12:35 SW 9 10.00 Fair CLR 91.9 69.6 48% 97 30 0.0
31 12:15 SW 7 10.00 Partly Cloudy SCT110 91.2 69.1 48% 96 30.01 0.0
31 11:55 SW 10 10.00 Partly Cloudy SCT110 89.6 68 49% 93 30.01 0.0
31 11:35 SW 10 10.00 Partly Cloudy SCT110 88.9 67.3 49% 92 30.01 0.0
31 11:15 SW 12 10.00 Fair CLR 88.2 67.3 50% 91 30.01 0.0
31 10:55 SW 12 G 16 10.00 Fair CLR 87.1 66.6 51% 90 30.02 0.0
31 10:35 SW 10 10.00 Fair CLR 86 66 51% 88 30.02 0.0
31 10:15 SW 9 10.00 Fair CLR 84.4 65.7 53% 86 30.02 0.0
31 09:55 SW 10 10.00 Fair CLR 83.1 65.5 55% 85 30.02 0.0
31 09:35 S 12 10.00 Fair CLR 81.3 64.6 57% 83 30.02 0.0
31 09:15 SW 9 10.00 Fair CLR 79.7 63.7 58% 81 30.02 0.0
31 08:55 SW 10 G 17 10.00 Fair CLR 78.6 63.1 59% 80 30.02 0.0
31 08:35 S 9 10.00 Fair CLR 76.1 63.3 65% 78 30.02 0.0
31 08:15 S 10 10.00 Fair CLR 74.8 62.6 66% 30.01 0.0
31 07:55 S 7 10.00 Fair CLR 73.6 62.4 68% 30.01 0.0
31 07:35 S 8 10.00 Fair CLR 72.5 61.9 69% 30 0.0
31 07:15 S 8 10.00 Fair CLR 71.6 61.7 71% 29.99 0.0
31 06:55 S 7 10.00 Fair CLR 70.5 61.5 76.1 69.8 73% 29.99 0.0
31 06:35 S 6 10.00 Fair CLR 70 61.3 74% 29.99 0.0
31 06:15 S 6 10.00 Fair CLR 70.2 61.3 74% 29.98 0.0
31 05:55 S 6 10.00 Fair CLR 70.3 61.5 74% 29.98 0.0
31 05:35 S 6 10.00 Fair CLR 70.9 61.7 73% 29.98 0.0
31 05:15 S 7 10.00 Fair CLR 71.1 61.7 72% 29.98 0.0
31 04:55 S 6 10.00 Fair CLR 71.1 61.7 72% 29.98 0.0
31 04:35 S 6 10.00 Fair CLR 71.8 61.7 71% 29.98 0.0
31 04:15 S 7 10.00 Fair CLR 72.5 61.7 69% 29.98 0.0
31 03:55 S 7 10.00 Fair CLR 73 61.7 68% 29.98 0.0
31 03:35 S 6 10.00 Fair CLR 73.6 61.9 67% 29.98 0.0
31 03:15 S 7 10.00 Fair CLR 73.6 62.1 67% 29.97 0.0
31 02:55 S 6 10.00 Fair CLR 73.8 62.1 67% 29.97 0.0
31 02:35 S 8 10.00 Fair CLR 74.1 62.2 67% 29.97 0.0
31 02:15 S 6 10.00 Fair CLR 74.7 62.2 65% 29.98 0.0
31 01:55 S 6 10.00 Fair CLR 74.8 62.2 65% 29.98 0.0
31 01:35 S 7 10.00 Fair CLR 75.2 62.4 65% 77 29.98 0.0
31 01:15 S 7 10.00 Fair CLR 75.6 62.4 64% 78 29.98 0.0
31 00:55 S 7 10.00 Fair CLR 75.9 62.6 85.5 75.9 63% 78 29.98 0.0
31 00:35 S 6 10.00 Fair CLR 76.1 62.6 63% 78 29.98 0.0
31 00:15 S 7 10.00 Fair CLR 76.3 62.8 63% 78 29.98 0.0
30 23:55 S 6 10.00 Fair CLR 76.5 62.8 63% 78 29.99 0.0
30 23:35 S 8 10.00 Fair CLR 77 62.8 62% 79 29.99 0.0
30 23:15 S 7 10.00 Fair CLR 77.4 62.8 61% 79 29.99 0.0
30 22:55 S 9 10.00 Fair CLR 78.6 62.6 58% 80 29.98 0.0
30 22:35 S 7 10.00 Fair CLR 79 63 58% 81 29.98 0.0
30 22:15 S 8 10.00 Fair CLR 79.2 63.1 58% 81 29.98 0.0
30 21:55 S 9 10.00 Fair CLR 79.9 63 56% 81 29.98 0.0
30 21:35 S 8 10.00 Fair CLR 80.8 63 55% 82 29.98 0.0
30 21:15 SE 8 G 17 10.00 Fair CLR 81 63.5 55% 82 29.98 0.0
30 20:55 SE 10 10.00 Fair CLR 81.5 63.1 54% 83 29.97 0.0
30 20:35 SE 10 10.00 Fair CLR 81.9 63.3 53% 83 29.97 0.0
30 20:15 SE 8 10.00 Fair CLR 81.5 64.6 57% 83 29.96 0.0
30 19:55 SE 8 10.00 Fair CLR 82 65.8 58% 84 29.96 0.0
30 19:35 SE 8 10.00 Fair CLR 83.1 65.7 56% 85 29.95 0.0
30 19:15 SE 6 10.00 Fair CLR 84 65.3 53% 86 29.96 0.0
30 18:55 SE 7 10.00 Fair CLR 85.6 65.3 91.4 85.6 51% 88 29.96 0.0
30 18:35 S 8 10.00 Fair CLR 87.6 65.3 48% 90 29.96 0.0
30 18:15 S 7 10.00 Fair CLR 88.7 65.3 46% 91 29.96 0.0
30 17:55 S 9 10.00 Fair CLR 88.7 64.4 45% 90 29.96 0.0
30 17:35 S 8 10.00 Fair CLR 88.9 63.7 43% 90 29.96 0.0
30 17:15 S 9 10.00 Fair CLR 90.5 64.4 42% 92 29.96 0.0
30 16:55 S 10 10.00 Fair CLR 91 65.5 43% 93 29.96 0.0
30 16:35 S 9 10.00 Fair CLR 89.4 65.1 45% 91 29.96 0.0
30 16:15 S 9 G 16 10.00 Fair CLR 90.7 65.5 43% 93 29.96 0.0
30 15:55 S 8 10.00 Fair CLR 91.2 66.2 44% 94 29.97 0.0
30 15:35 S 12 10.00 Fair CLR 90.7 65.8 44% 93 29.97 0.0
30 15:15 S 8 10.00 Fair CLR 90.5 65.5 44% 93 29.98 0.0
30 14:55 S 7 10.00 Fair CLR 90.5 65.7 44% 93 29.98 0.0
30 14:35 S 8 10.00 Fair CLR 90.3 65.7 44% 93 29.98 0.0
30 14:15 S 7 10.00 Fair CLR 90.1 66.2 45% 93 29.99 0.0
30 13:55 S 9 10.00 Fair CLR 90 65.7 45% 92 30 0.0
30 13:35 S 10 10.00 Fair CLR 89.2 65.7 46% 92 30.01 0.0
30 13:15 S 8 10.00 Fair CLR 89.1 65.5 46% 91 30.01 0.0
30 12:55 S 9 10.00 Fair CLR 88 65.5 88 70 47% 90 30.01 0.0
30 12:35 S 8 10.00 Fair CLR 87.3 65.3 48% 89 30.01 0.0
30 12:15 SW 8 10.00 Fair CLR 86.2 64.6 49% 88 30.03 0.0
30 11:55 SW 7 10.00 Fair CLR 86 65.5 50% 88 30.03 0.0
30 11:35 S 10 G 14 10.00 Fair CLR 85.3 65.1 51% 87 30.03 0.0
30 11:15 S 10 10.00 Fair CLR 83.8 65.1 53% 86 30.03 0.0
30 10:55 S 9 10.00 Fair CLR 83.7 65.1 54% 85 30.03 0.0
30 10:35 S 12 G 17 10.00 Fair CLR 82.9 64.4 54% 85 30.03 0.0
30 10:15 S 12 G 16 10.00 Fair CLR 81.7 64 55% 83 30.03 0.0
30 09:55 SW 9 10.00 Fair CLR 80.8 64.6 58% 82 30.02 0.0
30 09:35 S 12 10.00 Fair CLR 79.2 63.9 60% 81 30.01 0.0
30 09:15 S 8 10.00 Fair CLR 77.7 63.9 62% 79 30.01 0.0
30 08:55 S 13 G 17 10.00 Fair CLR 76.3 63 64% 78 30.02 0.0
30 08:35 S 9 10.00 Fair CLR 75 63 66% 77 30.02 0.0
30 08:15 S 9 10.00 Fair CLR 73.4 63.1 70% 30.02 0.0
30 07:55 S 8 10.00 Fair CLR 72 63.3 74% 30.02 0.0
30 07:35 S 8 10.00 Fair CLR 70.9 63.1 77% 30.02 0.0
30 07:15 S 8 10.00 Fair CLR 70.2 63.1 79% 30.01 0.0
30 06:55 S 9 10.00 Fair CLR 69.8 63 73.4 69.8 79% 30 0.0
30 06:35 S 9 10.00 Fair CLR 70.3 63.1 78% 30.01 0.0
30 06:15 S 9 10.00 Fair CLR 70.3 63.3 79% 30.01 0.0
30 05:55 S 9 10.00 Fair CLR 70.2 63.5 80% 30.01 0.0
30 05:35 S 9 10.00 Fair CLR 70.7 63.5 78% 30 0.0
30 05:15 S 9 10.00 Fair CLR 70.3 63.3 79% 30 0.0
30 04:55 S 9 10.00 Fair CLR 70.7 63.5 78% 30 0.0
30 04:35 S 7 10.00 Fair CLR 71.1 63 76% 30 0.0
30 04:15 S 8 G 16 10.00 Fair CLR 71.6 63 74% 29.99 0.0
30 03:55 S 8 10.00 Fair CLR 71.4 63.1 75% 30 0.0
30 03:35 S 8 10.00 Fair CLR 71.8 63.1 74% 30 0.0
30 03:15 S 9 10.00 Fair CLR 72.3 63.1 73% 30.01 0.0
30 02:35 S 10 10.00 Fair CLR 72.9 63.3 72% 30.01 0.0
30 02:15 S 10 G 16 10.00 Fair CLR 73 63.5 72% 30.01 0.0
30 01:55 S 8 10.00 Fair CLR 72.9 63.5 73% 30.02 0.0
30 01:35 S 8 10.00 Fair CLR 72.5 63.3 73% 30.02 0.0
30 01:15 S 6 10.00 Fair CLR 72.7 63.5 73% 30.02 0.0
30 00:55 S 8 10.00 Fair CLR 73.4 63.5 79 72.3 71% 30.03 0.0
30 00:35 S 9 10.00 Fair CLR 73 63.3 72% 30.02 0.0
30 00:15 S 8 10.00 Fair CLR 72.5 63.3 73% 30.03 0.0
29 23:55 S 9 10.00 Fair CLR 72.3 63.5 74% 30.03 0.0
29 23:35 S 7 10.00 Fair CLR 72.9 63.5 73% 30.03 0.0
29 23:15 S 8 10.00 Fair CLR 73 63.5 72% 30.03 0.0
29 22:55 S 7 10.00 Fair CLR 73.4 63.5 71% 30.03 0.0
29 22:35 S 9 10.00 Fair CLR 74.3 63.1 68% 30.02 0.0
29 22:15 S 8 10.00 Fair CLR 74.7 63 67% 30.02 0.0
29 21:55 S 8 10.00 Fair CLR 74.8 63 67% 30.03 0.0
29 21:35 S 8 10.00 Fair CLR 74.8 63 67% 30.03 0.0
29 21:15 SE 8 10.00 Fair CLR 74.3 63.1 68% 30.03 0.0
29 20:55 SE 6 10.00 Fair CLR 74.3 63.5 69% 30.02 0.0
29 20:35 SE 6 10.00 Fair CLR 74.7 63.3 68% 30.02 0.0
29 20:15 SE 6 10.00 Fair CLR 74.3 63.5 69% 30.02 0.0
29 19:55 SE 5 10.00 Fair CLR 75 63.7 68% 77 30.02 0.0
29 19:35 SE 5 10.00 Fair CLR 77 64.2 65% 79 30.02 0.0
29 19:15 SE 7 10.00 Fair CLR 78.1 64 62% 80 30.02 0.0
29 18:55 S 6 10.00 Fair CLR 79 63.9 83.5 79 60% 81 30.02 0.0
29 18:35 S 8 10.00 Fair CLR 79.7 63.7 58% 81 30.01 0.0
29 18:15 S 10 10.00 Fair CLR 80.2 63.3 56% 82 30 0.0
29 17:55 S 10 G 16 10.00 Fair CLR 80.6 63.9 57% 82 30.01 0.0
29 17:35 S 9 10.00 Fair CLR 81.5 63.7 55% 83 30.03 0.0
29 17:15 S 7 10.00 Fair CLR 81.5 63.5 54% 83 30.04 0.0
29 16:55 S 9 10.00 Fair CLR 81.9 63.3 53% 83 30.04 0.0
29 16:35 S 7 10.00 Fair CLR 82.6 64.6 55% 84 30.04 0.0
29 16:15 S 5 10.00 Fair CLR 82 64.8 56% 84 30.06 0.0
29 15:55 S 7 10.00 Fair CLR 81.5 64.9 57% 83 30.07 0.0
29 15:35 S 6 10.00 Fair CLR 82.2 64.9 56% 84 30.07 0.0
29 15:15 SE 6 10.00 Fair CLR 82.4 64.6 55% 84 30.07 0.0
29 14:55 S 8 10.00 Fair CLR 82.6 64.4 54% 84 30.09 0.0
29 14:35 S 9 10.00 Fair CLR 81.9 64.4 56% 83 30.08 0.0
29 14:15 S 10 10.00 Fair CLR 82 63.9 54% 83 30.09 0.0
29 13:55 S 7 10.00 Fair CLR 82.8 64.4 54% 84 30.1 0.0
29 13:35 S 10 10.00 Fair CLR 82.6 64.2 54% 84 30.11 0.0
29 13:15 S 8 10.00 Fair CLR 81.5 63.7 55% 83 30.11 0.0
29 12:55 S 10 G 16 10.00 Fair CLR 81.3 63.3 82.4 63.5 54% 83 30.12 0.0
29 12:35 S 12 G 16 10.00 Fair CLR 81.7 64.8 57% 83 30.12 0.0
29 12:15 S 9 G 16 10.00 Fair CLR 81.9 65.3 57% 84 30.12 0.0
Date Time (cdt) Wind (mph) Vis. (mi.) Weather Sky Cond. Air Dwpt Max. Min. Relative Humidity Wind Chill (°F) Heat Index (°F) altimeter (in) sea level (mb) 1 hr 3 hr 6 hr
6 hour
Temperature (ºF) Pressure Precipitation (in)